createdAt,value
2023-01-26T00:01:23.265Z,96941.53
2023-01-26T00:03:51.199Z,96941.53
2023-01-26T00:06:20.686Z,96931.44
2023-01-26T00:08:50.729Z,96939.75
2023-01-26T00:11:24.410Z,96925.56
2023-01-26T00:13:51.566Z,96921.59
2023-01-26T00:16:18.819Z,96924.84
2023-01-26T00:18:46.049Z,96917.59
2023-01-26T00:21:16.292Z,96921.31
2023-01-26T00:23:43.300Z,96912.59
2023-01-26T00:26:14.438Z,96907.41
2023-01-26T00:28:41.738Z,96909.31
2023-01-26T00:31:32.798Z,96910.69
2023-01-26T00:33:59.684Z,96910.94
2023-01-26T00:36:27.585Z,96900.56
2023-01-26T00:38:54.448Z,96901.47
2023-01-26T00:41:39.576Z,96900.50
2023-01-26T00:44:06.480Z,96912.25
2023-01-26T00:46:33.353Z,96899.97
2023-01-26T00:49:00.917Z,96897.78
2023-01-26T00:51:28.016Z,96895.31
2023-01-26T00:53:54.823Z,96894.25
2023-01-26T00:56:21.918Z,96893.84
2023-01-26T00:58:48.768Z,96884.28
2023-01-26T01:01:15.641Z,96889.34
2023-01-26T01:03:42.736Z,96887.19
2023-01-26T01:06:09.579Z,96885.81
2023-01-26T01:08:36.418Z,96881.03
2023-01-26T01:11:09.152Z,96875.09
2023-01-26T01:13:36.073Z,96884.84
2023-01-26T01:16:12.576Z,96886.50
2023-01-26T01:18:40.023Z,96880.56
2023-01-26T01:21:11.534Z,96882.88
2023-01-26T01:23:38.686Z,96881.06
2023-01-26T01:26:06.467Z,96882.44
2023-01-26T01:28:35.413Z,96883.28
2023-01-26T01:31:11.889Z,96892.00
2023-01-26T01:33:39.608Z,96887.38
2023-01-26T01:36:13.829Z,96878.38
2023-01-26T01:38:41.835Z,96881.13
2023-01-26T01:41:09.604Z,96880.16
2023-01-26T01:43:37.222Z,96880.09
2023-01-26T01:46:25.435Z,96888.44
2023-01-26T01:49:01.854Z,96883.25
2023-01-26T01:51:41.664Z,96878.53
2023-01-26T01:54:15.935Z,96868.19
2023-01-26T01:56:49.813Z,96870.44
2023-01-26T01:59:20.684Z,96870.19
2023-01-26T02:01:50.922Z,96876.19
2023-01-26T02:04:20.130Z,96881.94
2023-01-26T02:06:54.181Z,96881.69
2023-01-26T02:09:46.677Z,96866.94
2023-01-26T02:12:15.311Z,96864.19
2023-01-26T02:14:42.733Z,96847.81
2023-01-26T02:17:10.107Z,96853.50
2023-01-26T02:20:12.189Z,96857.56
2023-01-26T02:23:26.270Z,96851.31
2023-01-26T02:25:53.017Z,96838.34
2023-01-26T02:28:25.733Z,96841.25
2023-01-26T02:30:54.196Z,96839.78
2023-01-26T02:33:29.793Z,96844.19
2023-01-26T02:35:56.674Z,96831.34
2023-01-26T02:38:31.102Z,96835.72
2023-01-26T02:41:07.235Z,96835.47
2023-01-26T02:43:34.144Z,96822.59
2023-01-26T02:46:01.025Z,96819.63
2023-01-26T02:48:46.252Z,96815.50
2023-01-26T02:51:13.310Z,96819.31
2023-01-26T02:53:40.374Z,96816.88
2023-01-26T02:56:07.544Z,96809.03
2023-01-26T02:58:34.849Z,96800.56
2023-01-26T03:01:01.847Z,96801.50
2023-01-26T03:03:42.078Z,96800.75
2023-01-26T03:06:10.946Z,96793.22
2023-01-26T03:08:38.546Z,96791.56
2023-01-26T03:11:07.247Z,96786.84
2023-01-26T03:13:34.607Z,96785.84
2023-01-26T03:16:06.746Z,96789.44
2023-01-26T03:18:54.189Z,96784.47
2023-01-26T03:21:39.902Z,96786.91
2023-01-26T03:24:30.776Z,96776.44
2023-01-26T03:27:15.941Z,96781.91
2023-01-26T03:29:42.799Z,96789.94
2023-01-26T03:32:09.787Z,96782.84
2023-01-26T03:34:36.819Z,96790.97
2023-01-26T03:37:04.375Z,96786.00
2023-01-26T03:39:49.483Z,96788.44
2023-01-26T03:42:34.606Z,96779.81
2023-01-26T03:45:19.981Z,96785.44
2023-01-26T03:48:05.142Z,96785.72
2023-01-26T03:50:50.373Z,96782.84
2023-01-26T03:53:38.886Z,96784.50
2023-01-26T03:56:24.700Z,96785.44
2023-01-26T03:58:55.196Z,96789.28
2023-01-26T04:01:27.815Z,96781.31
2023-01-26T04:04:16.204Z,96775.88
2023-01-26T04:07:04.356Z,96778.94
2023-01-26T04:09:32.695Z,96773.53
2023-01-26T04:12:00.189Z,96771.53
2023-01-26T04:14:50.077Z,96774.34
2023-01-26T04:17:36.820Z,96784.19
2023-01-26T04:20:24.937Z,96771.38
2023-01-26T04:22:51.869Z,96761.69
2023-01-26T04:25:21.667Z,96771.94
2023-01-26T04:27:48.583Z,96777.66
2023-01-26T04:30:17.614Z,96774.81
2023-01-26T04:32:46.168Z,96767.44
2023-01-26T04:35:13.324Z,96775.13
2023-01-26T04:37:40.432Z,96774.59
2023-01-26T04:40:08.560Z,96771.06
2023-01-26T04:42:35.517Z,96762.94
2023-01-26T04:45:02.466Z,96764.28
2023-01-26T04:47:29.597Z,96760.75
2023-01-26T04:49:56.474Z,96758.00
2023-01-26T04:52:23.567Z,96766.47
2023-01-26T04:54:50.424Z,96758.00
2023-01-26T04:57:20.188Z,96762.94
2023-01-26T04:59:47.216Z,96763.47
2023-01-26T05:02:14.177Z,96766.69
2023-01-26T05:04:40.967Z,96759.09
2023-01-26T05:07:07.794Z,96758.22
2023-01-26T05:09:34.656Z,96765.78
2023-01-26T05:12:21.453Z,96771.56
2023-01-26T05:14:48.329Z,96764.16
2023-01-26T05:17:15.118Z,96770.56
2023-01-26T05:19:41.921Z,96768.72
2023-01-26T05:22:09.935Z,96767.03
2023-01-26T05:24:37.789Z,96766.09
2023-01-26T05:27:22.701Z,96765.09
2023-01-26T05:29:51.296Z,96769.75
2023-01-26T05:32:18.749Z,96773.66
2023-01-26T05:34:46.084Z,96778.03
2023-01-26T05:37:14.802Z,96764.44
2023-01-26T05:39:42.220Z,96764.22
2023-01-26T05:42:09.298Z,96760.09
2023-01-26T05:44:36.171Z,96764.34
2023-01-26T05:47:03.035Z,96760.69
2023-01-26T05:49:30.181Z,96761.81
2023-01-26T05:51:57.200Z,96763.16
2023-01-26T05:54:24.484Z,96756.88
2023-01-26T05:56:53.254Z,96766.16
2023-01-26T05:59:20.104Z,96763.69
2023-01-26T06:01:46.938Z,96766.03
2023-01-26T06:04:14.053Z,96756.63
2023-01-26T06:06:40.910Z,96760.88
2023-01-26T06:09:07.741Z,96765.06
2023-01-26T06:11:34.650Z,96756.63
2023-01-26T06:14:01.556Z,96761.28
2023-01-26T06:16:28.471Z,96763.97
2023-01-26T06:18:55.458Z,96767.25
2023-01-26T06:21:22.459Z,96766.72
2023-01-26T06:23:49.234Z,96762.47
2023-01-26T06:26:16.237Z,96769.72
2023-01-26T06:28:43.229Z,96766.47
2023-01-26T06:31:10.860Z,96764.03
2023-01-26T06:33:38.783Z,96768.13
2023-01-26T06:36:10.022Z,96762.94
2023-01-26T06:38:37.668Z,96773.31
2023-01-26T06:41:07.351Z,96764.81
2023-01-26T06:43:35.881Z,96771.38
2023-01-26T06:46:04.919Z,96765.66
2023-01-26T06:48:35.026Z,96767.28
2023-01-26T06:51:20.586Z,96767.88
2023-01-26T06:53:58.438Z,96767.59
2023-01-26T06:56:28.645Z,96766.50
2023-01-26T06:58:55.546Z,96765.28
2023-01-26T07:01:26.895Z,96764.59
2023-01-26T07:03:55.519Z,96767.47
2023-01-26T07:06:22.385Z,96764.44
2023-01-26T07:08:49.211Z,96764.44
2023-01-26T07:11:17.272Z,96762.41
2023-01-26T07:13:44.147Z,96748.69
2023-01-26T07:16:14.530Z,96760.16
2023-01-26T07:18:42.022Z,96759.50
2023-01-26T07:21:15.149Z,96761.56
2023-01-26T07:23:42.532Z,96752.28
2023-01-26T07:26:09.741Z,96750.63
2023-01-26T07:28:39.214Z,96758.56
2023-01-26T07:31:08.326Z,96751.22
2023-01-26T07:33:35.791Z,96755.31
2023-01-26T07:36:03.970Z,96749.84
2023-01-26T07:38:32.132Z,96747.69
2023-01-26T07:40:59.006Z,96747.97
2023-01-26T07:43:26.033Z,96744.13
2023-01-26T07:45:54.628Z,96740.84
2023-01-26T07:48:24.214Z,96745.25
2023-01-26T07:50:51.638Z,96736.25
2023-01-26T07:53:19.598Z,96740.59
2023-01-26T07:55:47.164Z,96735.81
2023-01-26T07:58:14.243Z,96740.31
2023-01-26T08:00:41.074Z,96739.25
2023-01-26T08:03:08.481Z,96745.50
2023-01-26T08:05:36.988Z,96741.38
2023-01-26T08:08:04.415Z,96735.66
2023-01-26T08:10:32.035Z,96736.84
2023-01-26T08:13:02.215Z,96741.66
2023-01-26T08:15:29.895Z,96742.63
2023-01-26T08:17:56.842Z,96740.03
2023-01-26T08:20:24.099Z,96737.56
2023-01-26T08:22:51.049Z,96735.00
2023-01-26T08:25:17.938Z,96736.47
2023-01-26T08:27:44.803Z,96726.19
2023-01-26T08:30:13.356Z,96739.59
2023-01-26T08:32:40.299Z,96737.31
2023-01-26T08:35:08.070Z,96731.72
2023-01-26T08:37:34.892Z,96732.69
2023-01-26T08:40:01.784Z,96721.91
2023-01-26T08:42:28.932Z,96724.22
2023-01-26T08:44:55.808Z,96732.56
2023-01-26T08:47:22.626Z,96728.63
2023-01-26T08:49:49.513Z,96726.44
2023-01-26T08:52:16.777Z,96721.78
2023-01-26T08:54:43.639Z,96719.03
2023-01-26T08:57:11.796Z,96731.59
2023-01-26T08:59:38.637Z,96720.16
2023-01-26T09:02:06.045Z,96725.88
2023-01-26T09:04:33.568Z,96719.28
2023-01-26T09:07:00.422Z,96723.53
2023-01-26T09:09:27.229Z,96722.28
2023-01-26T09:11:57.187Z,96726.66
2023-01-26T09:14:24.323Z,96733.84
2023-01-26T09:16:51.219Z,96738.63
2023-01-26T09:19:18.114Z,96739.38
2023-01-26T09:21:44.986Z,96735.66
2023-01-26T09:24:11.948Z,96741.88
2023-01-26T09:26:38.781Z,96736.16
2023-01-26T09:29:05.619Z,96739.44
2023-01-26T09:31:32.525Z,96740.03
2023-01-26T09:33:59.444Z,96751.75
2023-01-26T09:36:26.453Z,96750.09
2023-01-26T09:38:54.083Z,96747.97
2023-01-26T09:41:51.543Z,96750.16
2023-01-26T09:44:26.097Z,96751.78
2023-01-26T09:47:37.201Z,96746.34
2023-01-26T09:50:40.258Z,96745.25
2023-01-26T09:53:25.117Z,96737.09
2023-01-26T09:55:52.723Z,96736.94
2023-01-26T09:58:34.622Z,96733.25
2023-01-26T10:01:03.977Z,96730.81
2023-01-26T10:04:02.761Z,96727.94
2023-01-26T10:06:32.365Z,96724.25
2023-01-26T10:09:21.828Z,96729.31
2023-01-26T10:11:58.142Z,96737.22
2023-01-26T10:14:44.686Z,96727.81
2023-01-26T10:17:20.025Z,96712.25
2023-01-26T10:19:54.318Z,96713.63
2023-01-26T10:22:42.820Z,96713.31
2023-01-26T10:25:34.612Z,96707.47
2023-01-26T10:28:25.069Z,96706.53
2023-01-26T10:30:52.925Z,96708.28
2023-01-26T10:33:34.445Z,96709.13
2023-01-26T10:36:04.281Z,96705.53
2023-01-26T10:38:34.031Z,96716.59
2023-01-26T10:41:26.275Z,96704.47
2023-01-26T10:44:07.479Z,96710.63
2023-01-26T10:46:41.157Z,96703.38
2023-01-26T10:49:17.209Z,96696.41
2023-01-26T10:51:47.381Z,96695.03
2023-01-26T10:54:27.734Z,96682.63
2023-01-26T10:57:03.612Z,96699.97
2023-01-26T10:59:32.505Z,96690.41
2023-01-26T11:02:22.283Z,96693.13
2023-01-26T11:05:08.723Z,96690.53
2023-01-26T11:07:44.727Z,96696.97
2023-01-26T11:10:23.467Z,96689.88
2023-01-26T11:12:52.095Z,96688.50
2023-01-26T11:15:27.448Z,96694.63
2023-01-26T11:18:50.842Z,96697.50
2023-01-26T11:21:32.119Z,96686.59
2023-01-26T11:24:17.578Z,96690.13
2023-01-26T11:27:35.664Z,96692.56
2023-01-26T11:30:27.447Z,96688.78
2023-01-26T11:33:12.240Z,96689.31
2023-01-26T11:36:06.760Z,96692.03
2023-01-26T11:38:41.044Z,96687.81
2023-01-26T11:41:33.833Z,96684.53
2023-01-26T11:44:24.790Z,96678.00
2023-01-26T11:47:21.638Z,96682.75
2023-01-26T11:49:59.975Z,96684.25
2023-01-26T11:52:59.762Z,96676.75
2023-01-26T11:55:44.298Z,96677.28
2023-01-26T11:59:15.399Z,96675.38
2023-01-26T12:01:49.325Z,96670.41
2023-01-26T12:04:22.236Z,96668.25
2023-01-26T12:07:14.852Z,96665.44
2023-01-26T12:09:46.915Z,96663.09
2023-01-26T12:12:38.424Z,96646.97
2023-01-26T12:15:24.732Z,96651.34
2023-01-26T12:18:12.521Z,96653.00
2023-01-26T12:20:51.558Z,96646.72
2023-01-26T12:23:26.726Z,96652.44
2023-01-26T12:26:00.510Z,96638.56
2023-01-26T12:28:45.505Z,96642.88
2023-01-26T12:31:18.720Z,96636.88
2023-01-26T12:33:47.466Z,96630.06
2023-01-26T12:36:38.629Z,96638.53
2023-01-26T12:39:26.660Z,96630.31
2023-01-26T12:42:19.598Z,96629.22
2023-01-26T12:45:21.895Z,96628.41
2023-01-26T12:48:17.544Z,96649.97
2023-01-26T12:50:58.518Z,96644.78
2023-01-26T12:53:31.404Z,96623.25
2023-01-26T12:56:24.336Z,96634.19
2023-01-26T12:58:53.394Z,96633.09
2023-01-26T13:01:24.360Z,96627.38
2023-01-26T13:03:59.212Z,96617.13
2023-01-26T13:06:28.708Z,96614.25
2023-01-26T13:09:04.483Z,96623.56
2023-01-26T13:11:56.656Z,96630.63
2023-01-26T13:14:29.387Z,96617.81
2023-01-26T13:16:57.950Z,96619.16
2023-01-26T13:19:44.105Z,96619.94
2023-01-26T13:22:23.457Z,96621.00
2023-01-26T13:24:56.623Z,96615.81
2023-01-26T13:27:38.456Z,96620.75
2023-01-26T13:30:23.949Z,96622.94
2023-01-26T13:32:54.829Z,96614.75
2023-01-26T13:35:25.215Z,96618.31
2023-01-26T13:38:29.125Z,96619.94
2023-01-26T13:40:56.081Z,96623.78
2023-01-26T13:43:48.815Z,96624.06
2023-01-26T13:46:40.008Z,96627.47
2023-01-26T13:49:36.963Z,96622.28
2023-01-26T13:52:14.751Z,96618.75
2023-01-26T13:54:43.527Z,96621.91
2023-01-26T13:57:23.776Z,96620.25
2023-01-26T14:00:01.052Z,96615.34
2023-01-26T14:02:35.839Z,96617.25
2023-01-26T14:05:03.327Z,96621.38
2023-01-26T14:07:40.305Z,96621.91
2023-01-26T14:10:08.399Z,96613.06
2023-01-26T14:12:42.527Z,96614.25
2023-01-26T14:15:28.817Z,96613.75
2023-01-26T14:18:09.005Z,96622.19
2023-01-26T14:20:39.457Z,96612.50
2023-01-26T14:23:18.770Z,96617.81
2023-01-26T14:26:21.242Z,96613.03
2023-01-26T14:28:48.299Z,96606.59
2023-01-26T14:31:24.732Z,96614.91
2023-01-26T14:33:57.302Z,96606.59
2023-01-26T14:36:29.361Z,96623.91
2023-01-26T14:38:56.908Z,96617.25
2023-01-26T14:41:31.761Z,96619.53
2023-01-26T14:44:05.792Z,96610.41
2023-01-26T14:46:44.651Z,96615.88
2023-01-26T14:49:48.363Z,96607.69
2023-01-26T14:52:39.937Z,96622.69
2023-01-26T14:55:18.748Z,96602.50
2023-01-26T14:57:45.588Z,96615.88
2023-01-26T15:00:30.512Z,96615.22
2023-01-26T15:03:00.673Z,96620.09
2023-01-26T15:05:41.111Z,96619.16
2023-01-26T15:08:25.369Z,96609.34
2023-01-26T15:11:19.726Z,96612.31
2023-01-26T15:13:53.530Z,96614.34
2023-01-26T15:16:23.695Z,96616.28
2023-01-26T15:19:08.418Z,96619.44
2023-01-26T15:21:39.833Z,96622.72
2023-01-26T15:24:13.896Z,96624.38
2023-01-26T15:26:41.526Z,96622.47
2023-01-26T15:29:26.107Z,96627.91
2023-01-26T15:31:56.397Z,96630.78
2023-01-26T15:34:40.507Z,96629.97
2023-01-26T15:37:31.526Z,96629.41
2023-01-26T15:39:58.601Z,96637.19
2023-01-26T15:42:31.178Z,96632.56
2023-01-26T15:44:58.275Z,96637.47
2023-01-26T15:47:25.220Z,96642.38
2023-01-26T15:49:52.206Z,96635.44
2023-01-26T15:52:28.563Z,96645.38
2023-01-26T15:54:55.438Z,96638.03
2023-01-26T15:57:22.303Z,96651.38
2023-01-26T15:59:49.182Z,96644.00
2023-01-26T16:02:19.701Z,96641.53
2023-01-26T16:04:47.320Z,96641.41
2023-01-26T16:07:18.892Z,96639.53
2023-01-26T16:09:45.782Z,96632.28
2023-01-26T16:12:30.492Z,96636.53
2023-01-26T16:14:57.917Z,96635.53
2023-01-26T16:17:24.770Z,96636.91
2023-01-26T16:19:51.608Z,96631.59
2023-01-26T16:22:18.431Z,96628.75
2023-01-26T16:24:46.714Z,96633.38
2023-01-26T16:27:13.567Z,96627.78
2023-01-26T16:29:40.499Z,96643.47
2023-01-26T16:32:28.739Z,96644.28
2023-01-26T16:34:55.570Z,96635.28
2023-01-26T16:37:22.525Z,96635.56
2023-01-26T16:39:49.301Z,96632.84
2023-01-26T16:42:21.203Z,96641.56
2023-01-26T16:44:48.477Z,96639.66
2023-01-26T16:47:15.521Z,96637.72
2023-01-26T16:49:42.343Z,96642.66
2023-01-26T16:52:09.978Z,96640.47
2023-01-26T16:54:36.938Z,96640.47
2023-01-26T16:57:03.984Z,96642.66
2023-01-26T16:59:30.941Z,96638.84
2023-01-26T17:01:58.071Z,96643.47
2023-01-26T17:04:24.894Z,96646.75
2023-01-26T17:06:51.853Z,96638.28
2023-01-26T17:09:18.745Z,96639.38
2023-01-26T17:11:45.586Z,96647.56
2023-01-26T17:14:13.112Z,96645.91
2023-01-26T17:16:40.072Z,96636.94
2023-01-26T17:19:09.130Z,96638.69
2023-01-26T17:21:42.303Z,96641.81
2023-01-26T17:24:11.112Z,96645.63
2023-01-26T17:26:38.113Z,96644.00
2023-01-26T17:29:05.519Z,96645.38
2023-01-26T17:31:32.458Z,96645.38
2023-01-26T17:33:59.376Z,96641.97
2023-01-26T17:36:26.365Z,96639.91
2023-01-26T17:38:54.086Z,96638.53
2023-01-26T17:41:21.171Z,96642.34
2023-01-26T17:43:48.046Z,96647.28
2023-01-26T17:46:20.901Z,96643.47
2023-01-26T17:48:49.143Z,96643.75
2023-01-26T17:51:20.859Z,96649.47
2023-01-26T17:53:49.806Z,96641.00
2023-01-26T17:56:19.477Z,96642.09
2023-01-26T17:58:52.560Z,96640.16
2023-01-26T18:01:20.921Z,96636.91
2023-01-26T18:03:48.317Z,96637.47
2023-01-26T18:06:15.811Z,96635.00
2023-01-26T18:08:43.045Z,96634.34
2023-01-26T18:11:12.555Z,96641.72
2023-01-26T18:13:40.115Z,96638.56
2023-01-26T18:16:09.122Z,96638.28
2023-01-26T18:18:36.288Z,96638.00
2023-01-26T18:21:17.058Z,96637.72
2023-01-26T18:23:49.454Z,96635.44
2023-01-26T18:26:18.926Z,96637.88
2023-01-26T18:28:47.069Z,96629.00
2023-01-26T18:31:36.872Z,96628.44
2023-01-26T18:34:04.688Z,96633.38
2023-01-26T18:36:32.029Z,96636.34
2023-01-26T18:39:03.510Z,96638.56
2023-01-26T18:41:31.126Z,96639.09
2023-01-26T18:43:59.201Z,96640.16
2023-01-26T18:46:28.212Z,96644.16
2023-01-26T18:49:00.553Z,96645.03
2023-01-26T18:51:30.356Z,96646.97
2023-01-26T18:53:57.694Z,96632.81
2023-01-26T18:56:24.931Z,96636.09
2023-01-26T18:58:53.673Z,96641.56
2023-01-26T19:01:21.876Z,96639.13
2023-01-26T19:03:54.041Z,96640.06
2023-01-26T19:06:22.752Z,96649.88
2023-01-26T19:09:01.132Z,96647.69
2023-01-26T19:11:31.736Z,96643.75
2023-01-26T19:13:59.576Z,96649.75
2023-01-26T19:16:27.176Z,96638.00
2023-01-26T19:18:55.393Z,96635.97
2023-01-26T19:21:24.734Z,96630.91
2023-01-26T19:23:54.064Z,96644.84
2023-01-26T19:26:25.558Z,96641.72
2023-01-26T19:28:53.875Z,96646.72
2023-01-26T19:31:22.278Z,96644.28
2023-01-26T19:34:01.177Z,96634.72
2023-01-26T19:36:31.376Z,96638.78
2023-01-26T19:38:58.621Z,96634.56
2023-01-26T19:41:26.323Z,96633.06
2023-01-26T19:43:53.465Z,96630.31
2023-01-26T19:46:20.854Z,96629.00
2023-01-26T19:48:48.612Z,96627.63
2023-01-26T19:51:24.484Z,96637.88
2023-01-26T19:53:58.141Z,96637.44
2023-01-26T19:56:31.863Z,96630.91
2023-01-26T19:59:01.591Z,96633.75
2023-01-26T20:01:30.607Z,96637.31
2023-01-26T20:04:01.269Z,96632.28
2023-01-26T20:06:32.459Z,96635.81
2023-01-26T20:09:00.585Z,96636.91
2023-01-26T20:11:29.500Z,96629.81
2023-01-26T20:14:02.563Z,96633.38
2023-01-26T20:16:30.393Z,96634.31
2023-01-26T20:18:59.184Z,96628.44
2023-01-26T20:21:27.695Z,96630.59
2023-01-26T20:23:55.957Z,96631.44
2023-01-26T20:26:25.466Z,96629.78
2023-01-26T20:28:52.766Z,96623.53
2023-01-26T20:31:23.637Z,96631.97
2023-01-26T20:33:53.271Z,96631.38
2023-01-26T20:36:24.662Z,96635.50
2023-01-26T20:38:52.173Z,96618.06
2023-01-26T20:41:23.725Z,96633.56
2023-01-26T20:44:02.355Z,96617.13
2023-01-26T20:46:39.295Z,96629.28
2023-01-26T20:49:08.639Z,96626.41
2023-01-26T20:51:38.222Z,96622.72
2023-01-26T20:54:07.180Z,96625.16
2023-01-26T20:56:35.482Z,96619.97
2023-01-26T20:59:03.010Z,96623.56
2023-01-26T21:01:30.284Z,96617.69
2023-01-26T21:03:57.138Z,96608.28
2023-01-26T21:06:24.569Z,96611.81
2023-01-26T21:08:55.057Z,96618.63
2023-01-26T21:11:28.785Z,96608.81
2023-01-26T21:14:03.056Z,96608.84
2023-01-26T21:16:32.016Z,96597.91
2023-01-26T21:18:59.175Z,96608.00
2023-01-26T21:21:26.448Z,96597.38
2023-01-26T21:23:53.305Z,96606.94
2023-01-26T21:26:23.312Z,96615.09
2023-01-26T21:28:56.224Z,96613.47
2023-01-26T21:31:26.102Z,96611.69
2023-01-26T21:33:53.932Z,96608.84
2023-01-26T21:36:24.410Z,96622.47
2023-01-26T21:38:53.499Z,96615.91
2023-01-26T21:41:58.167Z,96612.22
2023-01-26T21:44:28.362Z,96614.25
2023-01-26T21:46:59.303Z,96612.09
2023-01-26T21:49:28.588Z,96609.22
2023-01-26T21:52:14.385Z,96607.19
2023-01-26T21:54:41.675Z,96605.69
2023-01-26T21:57:30.118Z,96606.91
2023-01-26T21:59:57.166Z,96601.72
2023-01-26T22:02:24.353Z,96597.09
2023-01-26T22:04:51.534Z,96603.09
2023-01-26T22:07:18.633Z,96602.16
2023-01-26T22:09:45.667Z,96599.25
2023-01-26T22:12:12.807Z,96605.13
2023-01-26T22:14:40.102Z,96607.19
2023-01-26T22:17:07.807Z,96597.38
2023-01-26T22:19:35.163Z,96602.53
2023-01-26T22:22:03.438Z,96601.19
2023-01-26T22:24:30.313Z,96596.66
2023-01-26T22:26:57.616Z,96598.19
2023-01-26T22:29:24.532Z,96599.69
2023-01-26T22:31:51.907Z,96600.09
2023-01-26T22:34:18.822Z,96600.78
2023-01-26T22:36:45.667Z,96599.81
2023-01-26T22:39:12.570Z,96585.09
2023-01-26T22:41:40.057Z,96594.22
2023-01-26T22:44:07.026Z,96595.16
2023-01-26T22:46:34.432Z,96592.31
2023-01-26T22:49:01.240Z,96588.63
2023-01-26T22:51:30.989Z,96589.72
2023-01-26T22:53:59.182Z,96576.09
2023-01-26T22:56:26.893Z,96569.53
2023-01-26T22:59:00.580Z,96570.09
2023-01-26T23:01:33.045Z,96575.28
2023-01-26T23:04:01.300Z,96583.19
2023-01-26T23:06:29.529Z,96584.53
2023-01-26T23:08:58.470Z,96576.22
2023-01-26T23:11:28.490Z,96579.06
2023-01-26T23:13:58.442Z,96575.41
2023-01-26T23:16:26.548Z,96575.28
2023-01-26T23:18:55.778Z,96567.22
2023-01-26T23:21:23.704Z,96575.81
2023-01-26T23:23:50.820Z,96576.06
2023-01-26T23:26:18.105Z,96571.19
2023-01-26T23:28:45.407Z,96579.34
2023-01-26T23:31:14.883Z,96574.19
2023-01-26T23:33:42.332Z,96580.72
2023-01-26T23:36:11.640Z,96577.44
2023-01-26T23:38:38.712Z,96581.81
2023-01-26T23:41:06.521Z,96573.63
2023-01-26T23:43:33.342Z,96579.91
2023-01-26T23:46:00.530Z,96572.78
2023-01-26T23:48:27.365Z,96576.63
2023-01-26T23:51:04.011Z,96575.53
2023-01-26T23:53:31.377Z,96563.53
2023-01-26T23:56:00.756Z,96560.00
2023-01-26T23:58:27.986Z,96560.00
